EBCI/CRL METAR and TAF weather

Enter ICAO airport designator
Station Type Date Time Source
EBCI METAR 2020/04/04 20:50 UTC NOAA

EBCI 042050Z AUTO 10003KT CAVOK 09/01 Q1022


Station Type Date Time Source
EBCI Decoded METAR 2020/04/04 20:50 UTC NOAA

Charleroi / Gosselies, Belgium (EBCI) 50-28N 004-27E 192M
Apr 04, 2020 - 04:50 PM EDT / 2020.04.04 2050 UTC
Wind: from the E (100 degrees) at 3 MPH (3 KT):0
Visibility: greater than 7 mile(s):0
Temperature: 48 F (9 C)
Dew Point: 33 F (1 C)
Relative Humidity: 57%
Pressure (altimeter): 30.18 in. Hg (1022 hPa)
ob: EBCI 042050Z AUTO 10003KT CAVOK 09/01 Q1022
cycle: 21

Station Type Date Time Source
EBCI TAF 2020/04/04 18:27 UTC NOAA

TAF EBCI 041700Z 0418/0524 14005KT CAVOK

Example: see airport list